Time;durP1;ratioP1;P1;durP2;ratioP2;P2;SDS_P1;SDS_P2;PMS_P1;PMS_P2;Temp;Humidity;BMP_temperature;BMP_pressure;BME280_temperature;BME280_humidity;BME280_pressure;Samples;Min_cycle;Max_cycle;Signal;HPM_P1;HPM_P2
2022/04/03 00:00:13;;;;;;;2.93;2.67;;;4.80;98.50;;;;;;5052725;28;20428;-39
2022/04/03 00:02:39;;;;;;;3.77;3.20;;;4.60;98.30;;;;;;5071296;28;20431;-38
2022/04/03 00:05:05;;;;;;;4.27;3.13;;;4.70;98.40;;;;;;5060870;28;20782;-39
2022/04/03 00:07:31;;;;;;;4.23;3.23;;;4.60;98.30;;;;;;5048498;28;20202;-36
2022/04/03 00:09:57;;;;;;;3.93;3.13;;;4.40;98.50;;;;;;5053751;28;20664;-40
2022/04/03 00:12:24;;;;;;;3.60;3.10;;;4.60;98.60;;;;;;5063692;28;20472;-40
2022/04/03 00:14:49;;;;;;;5.17;3.00;;;4.50;98.70;;;;;;5074036;28;20188;-37
2022/04/03 00:17:15;;;;;;;3.70;3.30;;;4.70;98.90;;;;;;5063868;28;20417;-37
2022/04/03 00:19:42;;;;;;;4.90;3.50;;;4.30;99.00;;;;;;5056084;28;20498;-40
2022/04/03 00:22:08;;;;;;;4.33;3.37;;;4.40;99.30;;;;;;5047754;28;20428;-38
2022/04/03 00:24:34;;;;;;;3.37;3.07;;;4.50;99.20;;;;;;5047069;28;20439;-38
2022/04/03 00:26:59;;;;;;;3.40;3.10;;;4.10;99.20;;;;;;5047907;28;20431;-40
2022/04/03 00:29:25;;;;;;;4.00;3.10;;;4.50;99.60;;;;;;5065429;28;20412;-37
2022/04/03 00:31:51;;;;;;;3.03;2.77;;;4.30;99.80;;;;;;5065542;28;20242;-36
2022/04/03 00:34:16;;;;;;;3.30;2.97;;;4.50;99.80;;;;;;5058021;28;20212;-37
2022/04/03 00:36:42;;;;;;;3.00;2.70;;;4.40;99.80;;;;;;5046628;28;20485;-37
2022/04/03 00:39:08;;;;;;;3.53;3.23;;;4.20;99.90;;;;;;5053847;28;20277;-38
2022/04/03 00:41:35;;;;;;;3.90;3.40;;;4.30;99.90;;;;;;5045643;28;20565;-40
2022/04/03 00:44:00;;;;;;;3.10;2.80;;;4.20;99.90;;;;;;5046136;28;20768;-40
2022/04/03 00:46:27;;;;;;;2.90;2.60;;;4.30;99.90;;;;;;5067674;28;20420;-37
2022/04/03 00:48:53;;;;;;;3.50;2.70;;;4.20;99.90;;;;;;5065627;28;20198;-37
2022/04/03 00:51:20;;;;;;;3.80;2.90;;;4.30;99.90;;;;;;5046000;28;20617;-36
2022/04/03 00:53:46;;;;;;;4.37;3.13;;;4.50;99.90;;;;;;5048709;28;20511;-38
2022/04/03 00:56:12;;;;;;;4.50;3.83;;;4.40;99.80;;;;;;5046580;28;20439;-38
2022/04/03 00:58:39;;;;;;;5.07;4.03;;;4.20;99.90;;;;;;5052966;28;20456;-39
2022/04/03 01:01:05;;;;;;;4.20;3.30;;;4.30;99.90;;;;;;5067757;28;20437;-39
2022/04/03 01:03:31;;;;;;;3.50;3.10;;;4.20;99.90;;;;;;5067974;28;21098;-37
2022/04/03 01:05:57;;;;;;;4.43;3.00;;;4.10;99.90;;;;;;5051145;28;20502;-40
2022/04/03 01:08:24;;;;;;;5.60;2.90;;;4.10;99.90;;;;;;5057265;28;20683;-40
2022/04/03 01:10:50;;;;;;;4.00;3.00;;;4.10;99.90;;;;;;5054038;28;20209;-39
2022/04/03 01:13:16;;;;;;;3.10;2.80;;;4.20;99.90;;;;;;5050618;28;20416;-33
2022/04/03 01:15:42;;;;;;;4.37;3.33;;;4.20;99.90;;;;;;5053382;28;20499;-38
2022/04/03 01:18:08;;;;;;;3.57;3.27;;;4.30;99.90;;;;;;5074847;28;20948;-39
2022/04/03 01:20:35;;;;;;;3.43;2.80;;;4.10;99.90;;;;;;5054413;28;20819;-36
2022/04/03 01:23:01;;;;;;;3.77;3.03;;;4.00;99.90;;;;;;5050291;28;20427;-35
2022/04/03 01:25:27;;;;;;;4.47;3.03;;;4.20;99.90;;;;;;5053170;28;20427;-37
2022/04/03 01:27:52;;;;;;;4.47;3.20;;;4.20;99.90;;;;;;5080110;28;20429;-38
2022/04/03 01:30:18;;;;;;;3.50;3.20;;;4.00;99.90;;;;;;5056755;28;20190;-38
2022/04/03 01:32:44;;;;;;;4.30;3.30;;;4.10;99.90;;;;;;5057908;28;20511;-37
2022/04/03 01:35:10;;;;;;;4.20;2.90;;;4.10;99.90;;;;;;5061807;28;20213;-38
2022/04/03 01:37:35;;;;;;;4.57;3.30;;;4.00;99.90;;;;;;5049978;28;20189;-41
2022/04/03 01:40:02;;;;;;;5.13;3.57;;;4.20;99.90;;;;;;5051593;28;20412;-37
2022/04/03 01:42:28;;;;;;;6.30;3.63;;;3.90;99.90;;;;;;5048854;28;20507;-40
2022/04/03 01:44:54;;;;;;;5.07;3.00;;;3.80;99.90;;;;;;5051535;28;20427;-41
2022/04/03 01:47:20;;;;;;;3.47;3.00;;;4.10;99.90;;;;;;5057424;28;20457;-40
2022/04/03 01:49:46;;;;;;;3.80;3.00;;;3.80;99.90;;;;;;5054033;28;20508;-38
2022/04/03 01:52:12;;;;;;;4.40;3.17;;;3.70;99.90;;;;;;5049666;28;20471;-37
2022/04/03 01:54:37;;;;;;;4.73;3.10;;;3.90;99.90;;;;;;5061558;28;20188;-38
2022/04/03 01:57:04;;;;;;;4.13;2.90;;;3.90;99.90;;;;;;5049960;28;20802;-41
2022/04/03 01:59:29;;;;;;;5.13;3.30;;;3.70;99.90;;;;;;5071701;28;20181;-40
2022/04/03 02:01:55;;;;;;;3.23;2.93;;;3.90;99.90;;;;;;5056236;28;20438;-41
2022/04/03 02:04:21;;;;;;;8.47;4.00;;;3.60;99.90;;;;;;5057704;28;20567;-37
2022/04/03 02:06:46;;;;;;;4.47;3.40;;;3.60;99.90;;;;;;5049430;28;20190;-38
2022/04/03 02:09:12;;;;;;;4.23;3.20;;;3.90;99.90;;;;;;5056754;28;20675;-41
2022/04/03 02:11:38;;;;;;;4.80;3.10;;;3.80;99.90;;;;;;5048723;28;20213;-38
2022/04/03 02:14:05;;;;;;;4.17;3.00;;;3.70;99.90;;;;;;5049598;28;20545;-39
2022/04/03 02:16:30;;;;;;;4.90;3.50;;;3.70;99.90;;;;;;5058338;28;20759;-38
2022/04/03 02:18:56;;;;;;;4.23;3.10;;;3.70;99.90;;;;;;5071342;28;20426;-40
2022/04/03 02:21:22;;;;;;;5.37;3.20;;;3.70;99.90;;;;;;5048468;28;20569;-40
2022/04/03 02:23:48;;;;;;;4.77;4.00;;;3.60;99.90;;;;;;5049746;28;20451;-40
2022/04/03 02:26:13;;;;;;;5.17;3.37;;;3.80;99.90;;;;;;5049149;28;20646;-35
2022/04/03 02:28:39;;;;;;;3.43;3.13;;;3.60;99.90;;;;;;5048854;28;20217;-37
2022/04/03 02:31:05;;;;;;;4.13;3.67;;;3.50;99.90;;;;;;5061566;28;20301;-39
2022/04/03 02:33:30;;;;;;;4.63;3.40;;;3.40;99.90;;;;;;5076423;28;20180;-41
2022/04/03 02:35:56;;;;;;;7.40;3.10;;;3.60;99.90;;;;;;5055244;28;20420;-37
2022/04/03 02:38:22;;;;;;;3.23;2.93;;;3.70;99.90;;;;;;5050474;28;20273;-36
2022/04/03 02:40:48;;;;;;;4.73;3.63;;;3.50;99.90;;;;;;5060088;28;20225;-38
2022/04/03 02:43:14;;;;;;;4.50;3.70;;;3.30;99.90;;;;;;5061671;28;20504;-41
2022/04/03 02:45:40;;;;;;;4.70;3.67;;;3.20;99.90;;;;;;5075502;28;20203;-38
2022/04/03 02:48:06;;;;;;;3.90;3.60;;;3.30;99.90;;;;;;5068786;28;20251;-39
2022/04/03 02:50:32;;;;;;;4.57;3.63;;;3.20;99.90;;;;;;5059177;28;21116;-38
2022/04/03 02:52:58;;;;;;;5.70;3.53;;;3.10;99.90;;;;;;5048474;28;20431;-40
2022/04/03 02:55:25;;;;;;;4.00;3.40;;;3.20;99.90;;;;;;5057494;28;20849;-35
2022/04/03 02:57:52;;;;;;;4.17;3.57;;;2.90;99.90;;;;;;5048297;28;20564;-35
2022/04/03 03:00:19;;;;;;;4.73;3.23;;;3.10;99.90;;;;;;5047880;28;20436;-35
2022/04/03 03:02:47;;;;;;;3.27;2.90;;;3.30;99.90;;;;;;5064257;28;20511;-38
2022/04/03 03:05:14;;;;;;;4.80;3.50;;;3.00;99.90;;;;;;5067233;28;20987;-40
2022/04/03 03:07:41;;;;;;;3.80;3.37;;;3.00;99.90;;;;;;5073080;28;21162;-40
2022/04/03 03:10:09;;;;;;;4.13;3.30;;;2.90;99.90;;;;;;5059969;28;20426;-35
2022/04/03 03:12:35;;;;;;;4.03;3.60;;;3.20;99.90;;;;;;5048020;28;20778;-36
2022/04/03 03:15:02;;;;;;;4.37;3.63;;;3.10;99.90;;;;;;5048270;28;20458;-35
2022/04/03 03:17:28;;;;;;;3.87;3.47;;;3.10;99.90;;;;;;5072373;28;20415;-38
2022/04/03 03:19:53;;;;;;;3.30;3.00;;;3.20;99.90;;;;;;5063679;28;20515;-40
2022/04/03 03:22:19;;;;;;;3.97;3.57;;;3.40;99.90;;;;;;5047666;28;20600;-38
2022/04/03 03:24:45;;;;;;;3.97;3.40;;;3.10;99.90;;;;;;5058324;28;20189;-38
2022/04/03 03:27:11;;;;;;;3.87;3.37;;;3.00;99.90;;;;;;5058042;28;20440;-38
2022/04/03 03:29:37;;;;;;;6.30;3.37;;;2.80;99.90;;;;;;5064794;28;20424;-40
2022/04/03 03:32:02;;;;;;;3.53;3.20;;;2.90;99.90;;;;;;5055230;28;20566;-39
2022/04/03 03:34:28;;;;;;;3.60;3.30;;;3.10;99.90;;;;;;5079461;28;20268;-39
2022/04/03 03:36:54;;;;;;;8.30;3.80;;;3.10;99.90;;;;;;5048001;28;20220;-40
2022/04/03 03:39:19;;;;;;;4.37;3.90;;;2.80;99.90;;;;;;5054541;28;20584;-41
2022/04/03 03:41:45;;;;;;;4.43;3.87;;;2.90;99.90;;;;;;5048778;28;20196;-35
2022/04/03 03:44:11;;;;;;;5.00;3.50;;;2.80;99.90;;;;;;5047666;28;20256;-39
2022/04/03 03:46:37;;;;;;;4.10;3.50;;;2.80;99.90;;;;;;5054964;28;20197;-40
2022/04/03 03:49:03;;;;;;;5.67;3.50;;;2.80;99.90;;;;;;5076671;28;20192;-39
2022/04/03 03:51:29;;;;;;;4.40;4.00;;;2.80;99.90;;;;;;5052830;28;20460;-39
2022/04/03 03:53:54;;;;;;;8.37;3.70;;;2.80;99.90;;;;;;5049114;28;20424;-36
2022/04/03 03:56:20;;;;;;;5.03;4.07;;;2.80;99.90;;;;;;5050318;28;20235;-37
2022/04/03 03:58:46;;;;;;;4.83;4.00;;;2.60;99.90;;;;;;5047637;28;20185;-41
2022/04/03 04:01:12;;;;;;;4.57;3.90;;;2.60;99.90;;;;;;5064862;28;20197;-40
2022/04/03 04:03:38;;;;;;;6.00;4.00;;;2.30;99.90;;;;;;5059626;28;20269;-39
2022/04/03 04:06:04;;;;;;;5.67;3.83;;;2.40;99.90;;;;;;5056078;28;20432;-35
2022/04/03 04:08:29;;;;;;;4.23;3.53;;;2.40;99.90;;;;;;5047237;28;20193;-38
2022/04/03 04:10:57;;;;;;;4.40;3.60;;;2.40;99.90;;;;;;5047155;28;20224;-39
2022/04/03 04:13:22;;;;;;;4.30;3.33;;;2.60;99.90;;;;;;5047174;28;20544;-36
2022/04/03 04:15:48;;;;;;;4.37;3.43;;;2.60;99.90;;;;;;5049411;28;20423;-36
2022/04/03 04:18:13;;;;;;;4.60;3.80;;;2.40;99.90;;;;;;5056219;28;20224;-36
2022/04/03 04:20:39;;;;;;;4.60;3.70;;;2.50;99.90;;;;;;5056573;28;20192;-40
2022/04/03 04:23:05;;;;;;;5.13;3.70;;;2.60;99.90;;;;;;5046411;28;20263;-36
2022/04/03 04:25:31;;;;;;;4.47;3.40;;;2.70;99.90;;;;;;5056950;28;20570;-35
2022/04/03 04:27:58;;;;;;;5.10;3.90;;;2.60;99.90;;;;;;5065360;28;20215;-40
2022/04/03 04:30:24;;;;;;;5.10;3.97;;;2.60;99.90;;;;;;5052713;28;20428;-39
2022/04/03 04:32:50;;;;;;;4.87;3.87;;;2.70;99.90;;;;;;5055276;28;20535;-38
2022/04/03 04:35:15;;;;;;;3.63;3.27;;;2.50;99.90;;;;;;5067266;28;20668;-38
2022/04/03 04:37:42;;;;;;;5.93;4.43;;;2.70;99.90;;;;;;5046803;28;20649;-37
2022/04/03 04:40:09;;;;;;;4.77;3.77;;;2.70;99.90;;;;;;5051929;28;20623;-39
2022/04/03 04:42:35;;;;;;;5.10;3.80;;;2.70;99.90;;;;;;5046571;28;20900;-39
2022/04/03 04:45:01;;;;;;;4.50;3.57;;;2.90;99.90;;;;;;5046667;28;20436;-38
2022/04/03 04:47:27;;;;;;;4.20;3.73;;;2.80;99.90;;;;;;5052988;28;20451;-34
2022/04/03 04:49:52;;;;;;;7.10;4.07;;;2.70;99.90;;;;;;5068152;28;20424;-37
2022/04/03 04:52:18;;;;;;;6.00;3.93;;;2.70;99.90;;;;;;5046310;28;20300;-39
2022/04/03 04:54:44;;;;;;;6.37;5.17;;;2.70;99.90;;;;;;5049264;28;20255;-39
2022/04/03 04:57:09;;;;;;;5.27;4.30;;;2.20;99.90;;;;;;5046204;28;20201;-38
2022/04/03 04:59:35;;;;;;;4.63;3.80;;;2.30;99.90;;;;;;5068186;28;20193;-38
2022/04/03 05:02:01;;;;;;;5.67;4.73;;;2.50;99.90;;;;;;5073292;28;20231;-40
2022/04/03 05:04:27;;;;;;;3.80;3.50;;;2.30;99.90;;;;;;5067865;28;20242;-40
2022/04/03 05:06:53;;;;;;;4.73;4.27;;;2.50;99.90;;;;;;5054304;28;20185;-37
2022/04/03 05:09:20;;;;;;;6.73;4.30;;;2.20;99.90;;;;;;5049981;28;20434;-39
2022/04/03 05:11:46;;;;;;;4.50;3.83;;;2.20;99.90;;;;;;5055601;28;20468;-36
2022/04/03 05:14:13;;;;;;;4.70;4.20;;;2.40;99.90;;;;;;5045983;28;20838;-38
2022/04/03 05:16:39;;;;;;;4.80;4.30;;;2.20;99.90;;;;;;5050907;28;20474;-41
2022/04/03 05:19:05;;;;;;;12.83;4.63;;;2.00;99.90;;;;;;5063089;28;20413;-38
2022/04/03 05:21:30;;;;;;;7.13;4.33;;;2.00;99.90;;;;;;5057314;28;20194;-36
2022/04/03 05:23:56;;;;;;;4.87;4.17;;;2.00;99.90;;;;;;5046882;28;20190;-38
2022/04/03 05:26:22;;;;;;;5.77;4.13;;;2.10;99.90;;;;;;5070657;28;20239;-39
2022/04/03 05:28:48;;;;;;;3.90;3.50;;;1.90;99.90;;;;;;5069908;28;20978;-38
2022/04/03 05:31:14;;;;;;;4.43;4.03;;;1.60;99.90;;;;;;5045057;28;20213;-41
2022/04/03 05:33:40;;;;;;;5.70;3.43;;;1.60;99.90;;;;;;5067623;28;20431;-39
2022/04/03 05:36:06;;;;;;;4.70;4.30;;;1.60;99.90;;;;;;5061498;28;20467;-38
2022/04/03 05:38:32;;;;;;;6.67;4.43;;;1.90;99.90;;;;;;5046208;28;20456;-39
2022/04/03 05:40:57;;;;;;;8.20;4.40;;;1.90;99.90;;;;;;5048345;28;20496;-41
2022/04/03 05:43:23;;;;;;;5.20;3.93;;;2.00;99.90;;;;;;5045775;28;20244;-35
2022/04/03 05:45:49;;;;;;;6.73;4.87;;;2.10;99.90;;;;;;5048545;28;20205;-36
2022/04/03 05:48:14;;;;;;;5.10;4.03;;;2.10;99.90;;;;;;5062161;28;20205;-38
2022/04/03 05:50:40;;;;;;;4.87;4.13;;;2.50;99.90;;;;;;5067394;28;20288;-35
2022/04/03 05:53:06;;;;;;;5.43;4.30;;;2.70;99.90;;;;;;5048052;28;20273;-38
2022/04/03 05:55:32;;;;;;;5.60;4.20;;;2.60;99.90;;;;;;5057736;28;20181;-40
2022/04/03 05:57:58;;;;;;;4.33;3.83;;;2.60;99.90;;;;;;5077902;28;20839;-40
2022/04/03 06:00:24;;;;;;;4.83;4.00;;;2.90;99.90;;;;;;5048924;28;20412;-38
2022/04/03 06:02:55;;;;;;;6.10;4.77;;;2.90;99.90;;;;;;5055960;28;20213;-38
2022/04/03 06:05:33;;;;;;;7.40;4.40;;;2.90;99.90;;;;;;5079096;28;20411;-39
2022/04/03 06:08:00;;;;;;;6.10;4.33;;;3.20;99.90;;;;;;5049398;28;20503;-36
2022/04/03 06:10:26;;;;;;;6.50;5.23;;;3.30;99.90;;;;;;5060456;28;20415;-35
2022/04/03 06:12:51;;;;;;;6.17;5.03;;;3.40;99.90;;;;;;5072745;28;20473;-41
2022/04/03 06:15:17;;;;;;;7.03;4.93;;;3.50;99.90;;;;;;5064402;28;20419;-39
2022/04/03 06:17:43;;;;;;;10.50;5.40;;;3.80;99.90;;;;;;5057500;28;20199;-41
2022/04/03 06:20:09;;;;;;;7.80;6.10;;;4.20;99.90;;;;;;5076727;28;20199;-36
2022/04/03 06:22:34;;;;;;;7.23;5.63;;;4.40;99.90;;;;;;5055079;28;20276;-38
2022/04/03 06:25:00;;;;;;;8.13;5.80;;;4.30;99.90;;;;;;5070373;28;20999;-35
2022/04/03 06:27:27;;;;;;;8.30;4.90;;;4.40;99.90;;;;;;5056927;28;20197;-36
2022/04/03 06:29:53;;;;;;;7.60;5.40;;;4.60;99.90;;;;;;5088510;28;20430;-40
2022/04/03 06:32:19;;;;;;;7.90;5.20;;;4.80;99.90;;;;;;5055525;28;20478;-35
2022/04/03 06:34:45;;;;;;;6.87;5.40;;;4.80;99.50;;;;;;5057568;28;20189;-38
2022/04/03 06:37:10;;;;;;;7.10;5.37;;;5.40;99.60;;;;;;5055881;28;20443;-36
2022/04/03 06:39:36;;;;;;;6.87;5.37;;;5.60;99.20;;;;;;5076630;28;20598;-41
2022/04/03 06:42:03;;;;;;;6.70;5.53;;;5.40;98.50;;;;;;5080619;28;20181;-36
2022/04/03 06:44:30;;;;;;;7.93;5.17;;;5.60;98.00;;;;;;5063912;28;20472;-40
2022/04/03 06:46:56;;;;;;;6.20;4.70;;;5.60;97.80;;;;;;5050287;28;20434;-37
2022/04/03 06:49:21;;;;;;;6.47;5.00;;;5.90;97.20;;;;;;5054073;28;20931;-34
2022/04/03 06:51:47;;;;;;;7.27;5.53;;;5.80;96.80;;;;;;5053173;28;20511;-38
2022/04/03 06:54:13;;;;;;;7.03;5.70;;;6.00;96.60;;;;;;5046975;28;20369;-38
2022/04/03 06:56:38;;;;;;;7.60;5.03;;;6.20;95.90;;;;;;5065244;28;20627;-39
2022/04/03 06:59:04;;;;;;;5.00;4.27;;;6.20;96.20;;;;;;5060974;28;20186;-40
2022/04/03 07:01:30;;;;;;;4.93;4.10;;;6.30;95.70;;;;;;5061713;28;20234;-38
2022/04/03 07:03:56;;;;;;;6.77;4.20;;;6.50;95.90;;;;;;5058887;28;20504;-38
2022/04/03 07:06:21;;;;;;;5.20;3.97;;;6.60;95.20;;;;;;5063479;28;20641;-38
2022/04/03 07:08:48;;;;;;;5.60;3.77;;;6.30;95.10;;;;;;5060043;28;20242;-41
2022/04/03 07:11:15;;;;;;;5.10;3.60;;;6.40;95.10;;;;;;5058872;28;20221;-40
2022/04/03 07:13:40;;;;;;;4.47;3.40;;;6.50;94.90;;;;;;5055616;28;20710;-38
2022/04/03 07:16:06;;;;;;;4.73;3.40;;;7.00;94.80;;;;;;5053593;28;20509;-39
2022/04/03 07:18:35;;;;;;;4.20;3.07;;;6.80;94.60;;;;;;5063968;28;20185;-39
2022/04/03 07:21:01;;;;;;;4.40;3.40;;;6.70;94.00;;;;;;5064347;28;20194;-40
2022/04/03 07:23:27;;;;;;;4.17;2.67;;;6.80;93.80;;;;;;5073134;28;20692;-37
2022/04/03 07:25:53;;;;;;;3.43;2.93;;;6.70;93.30;;;;;;5063623;28;20714;-38
2022/04/03 07:28:18;;;;;;;9.33;2.47;;;6.90;93.30;;;;;;5047713;28;20186;-39
2022/04/03 07:30:44;;;;;;;4.90;2.00;;;6.40;90.50;;;;;;5062790;28;20235;-41
2022/04/03 07:33:10;;;;;;;3.10;2.40;;;6.30;90.60;;;;;;5065601;28;20279;-38
2022/04/03 07:35:37;;;;;;;3.73;2.87;;;6.10;91.00;;;;;;5068399;28;20380;-38
2022/04/03 07:38:02;;;;;;;5.30;2.30;;;6.10;92.40;;;;;;5005146;28;20625;-34
2022/04/03 07:40:28;;;;;;;3.40;2.63;;;6.20;92.10;;;;;;5045989;28;20508;-35
2022/04/03 07:42:54;;;;;;;3.20;2.43;;;6.30;92.80;;;;;;5054055;28;20597;-34
2022/04/03 07:45:20;;;;;;;4.47;2.40;;;6.20;92.80;;;;;;5046904;28;20273;-35
2022/04/03 07:47:48;;;;;;;2.80;2.40;;;6.40;92.80;;;;;;5046895;28;20247;-37
2022/04/03 07:50:13;;;;;;;3.37;2.20;;;6.20;91.90;;;;;;5062290;28;20679;-38
2022/04/03 07:52:40;;;;;;;3.80;3.13;;;6.40;92.70;;;;;;5071545;28;20463;-38
2022/04/03 07:55:06;;;;;;;3.20;2.70;;;6.40;92.70;;;;;;5046451;28;20826;-38
2022/04/03 07:57:32;;;;;;;3.63;2.30;;;6.50;92.40;;;;;;5051509;28;20518;-38
2022/04/03 07:59:58;;;;;;;2.60;2.37;;;6.50;92.40;;;;;;5062378;28;20834;-40
2022/04/03 08:02:23;;;;;;;6.80;2.27;;;6.70;92.10;;;;;;5066281;28;20443;-38
2022/04/03 08:04:49;;;;;;;2.53;2.33;;;6.50;92.90;;;;;;5068953;28;20188;-39
2022/04/03 08:07:15;;;;;;;2.43;2.23;;;6.60;92.60;;;;;;5070712;28;20680;-39
2022/04/03 08:09:41;;;;;;;4.00;2.70;;;6.50;92.60;;;;;;5046475;28;20302;-39
2022/04/03 08:12:07;;;;;;;3.53;2.70;;;6.50;92.60;;;;;;5047453;28;20312;-39
2022/04/03 08:14:33;;;;;;;4.00;2.90;;;6.60;92.70;;;;;;5046803;28;20428;-38
2022/04/03 08:16:59;;;;;;;4.13;2.90;;;6.60;92.60;;;;;;5046211;28;21021;-37
2022/04/03 08:19:25;;;;;;;3.93;2.80;;;6.50;92.50;;;;;;5058926;28;20664;-38
2022/04/03 08:21:50;;;;;;;6.10;3.73;;;6.40;92.40;;;;;;5074815;28;20570;-38
2022/04/03 08:24:16;;;;;;;4.17;2.30;;;6.50;92.90;;;;;;5047325;28;20657;-37
2022/04/03 08:26:42;;;;;;;4.10;3.03;;;6.40;93.00;;;;;;5054524;28;20242;-38
2022/04/03 08:29:07;;;;;;;3.93;3.37;;;6.30;91.90;;;;;;5047021;28;20194;-38
2022/04/03 08:31:33;;;;;;;4.33;3.10;;;6.40;92.50;;;;;;5045597;28;20253;-39
2022/04/03 08:33:59;;;;;;;4.43;2.73;;;6.70;92.90;;;;;;5057137;28;20184;-40
2022/04/03 08:36:25;;;;;;;5.93;3.30;;;6.60;92.90;;;;;;5077571;28;20181;-38
2022/04/03 08:38:51;;;;;;;4.47;2.97;;;6.80;92.80;;;;;;5046282;28;20447;-41
2022/04/03 08:41:17;;;;;;;5.23;3.40;;;7.10;91.10;;;;;;5050875;28;20283;-38
2022/04/03 08:43:46;;;;;;;3.97;3.20;;;7.20;92.30;;;;;;5047000;28;20435;-39
2022/04/03 08:46:11;;;;;;;4.60;3.30;;;7.20;92.50;;;;;;5046787;28;20907;-37
2022/04/03 08:48:44;;;;;;;3.53;3.03;;;7.20;91.90;;;;;;5050766;28;20527;-38
2022/04/03 08:51:10;;;;;;;3.83;2.93;;;7.40;91.30;;;;;;5069239;28;20212;-39
2022/04/03 08:53:39;;;;;;;3.70;3.13;;;7.40;91.90;;;;;;5056998;28;20826;-38
2022/04/03 08:56:05;;;;;;;5.80;3.10;;;7.10;89.50;;;;;;5048491;28;20201;-38
2022/04/03 08:58:32;;;;;;;3.40;3.10;;;7.20;90.40;;;;;;5046237;28;20420;-37
2022/04/03 09:00:57;;;;;;;3.50;3.20;;;7.50;90.80;;;;;;5045588;28;20908;-38
2022/04/03 09:03:23;;;;;;;3.83;3.20;;;7.40;89.70;;;;;;5049627;28;20564;-38
2022/04/03 09:05:49;;;;;;;5.10;3.73;;;7.40;90.00;;;;;;5062530;28;20254;-36
2022/04/03 09:08:14;;;;;;;3.20;2.90;;;7.40;90.20;;;;;;5065284;28;20176;-39
2022/04/03 09:10:44;;;;;;;4.00;3.00;;;7.40;90.70;;;;;;5054670;28;20193;-41
2022/04/03 09:13:10;;;;;;;3.30;2.50;;;7.30;90.00;;;;;;5068517;28;20439;-39
2022/04/03 09:15:36;;;;;;;3.13;2.83;;;7.20;87.50;;;;;;5075383;28;20442;-39
2022/04/03 09:18:04;;;;;;;3.90;2.63;;;6.80;87.70;;;;;;5056399;28;20981;-38
2022/04/03 09:20:32;;;;;;;3.43;2.40;;;6.70;87.00;;;;;;5065731;28;20420;-41
2022/04/03 09:23:03;;;;;;;4.63;2.00;;;6.90;88.40;;;;;;5060581;28;20430;-38
2022/04/03 09:25:32;;;;;;;2.87;2.50;;;6.70;87.30;;;;;;5066146;28;20772;-38
2022/04/03 09:27:59;;;;;;;4.47;2.70;;;6.80;90.00;;;;;;5057393;28;20439;-35
2022/04/03 09:30:46;;;;;;;4.20;3.27;;;6.60;90.40;;;;;;5055213;28;20419;-39
2022/04/03 09:33:13;;;;;;;4.53;2.20;;;6.60;90.60;;;;;;5056728;28;20447;-39
2022/04/03 09:36:03;;;;;;;3.50;2.27;;;6.70;90.90;;;;;;5063843;28;20937;-40
2022/04/03 09:38:35;;;;;;;3.73;2.60;;;6.70;90.60;;;;;;5057636;28;20424;-40
2022/04/03 09:41:01;;;;;;;3.00;2.27;;;6.50;90.70;;;;;;5074952;28;20411;-40
2022/04/03 09:43:32;;;;;;;2.63;2.20;;;6.50;91.80;;;;;;5065958;28;20410;-39
2022/04/03 09:46:00;;;;;;;4.40;3.00;;;6.50;91.60;;;;;;5073328;28;20473;-39
2022/04/03 09:48:31;;;;;;;4.90;2.73;;;6.70;92.50;;;;;;5077583;28;20420;-39
2022/04/03 09:51:07;;;;;;;2.63;2.07;;;6.50;91.90;;;;;;5069417;28;20423;-40
2022/04/03 09:53:43;;;;;;;3.67;2.63;;;6.70;92.30;;;;;;5065815;28;20436;-35
2022/04/03 09:56:10;;;;;;;3.00;2.40;;;6.70;92.50;;;;;;5049254;28;20899;-36
2022/04/03 09:58:51;;;;;;;2.97;2.67;;;6.50;92.80;;;;;;5064853;28;20431;-40
2022/04/03 10:01:34;;;;;;;2.67;2.30;;;6.60;92.70;;;;;;5070685;28;20510;-37
2022/04/03 10:04:02;;;;;;;2.27;2.03;;;6.90;93.40;;;;;;5048708;28;20522;-42
2022/04/03 10:06:29;;;;;;;2.60;2.40;;;6.60;92.70;;;;;;5068838;28;20419;-39
2022/04/03 10:08:55;;;;;;;3.20;2.53;;;6.70;92.80;;;;;;5064834;28;20427;-37
2022/04/03 10:11:21;;;;;;;4.10;2.17;;;6.80;92.30;;;;;;5062723;28;20444;-39
2022/04/03 10:13:48;;;;;;;3.93;2.73;;;6.60;92.60;;;;;;5060132;28;20448;-37
2022/04/03 10:16:15;;;;;;;3.17;2.87;;;6.50;92.70;;;;;;5058007;28;20924;-39
2022/04/03 10:18:43;;;;;;;3.33;2.50;;;6.40;92.80;;;;;;5055807;28;20442;-42
2022/04/03 10:21:19;;;;;;;3.87;2.53;;;6.50;92.90;;;;;;5059082;28;20713;-40
2022/04/03 10:23:46;;;;;;;2.80;2.50;;;6.20;92.30;;;;;;5057648;28;20424;-40
2022/04/03 10:26:16;;;;;;;3.47;2.90;;;6.60;92.50;;;;;;5048781;28;20818;-36
2022/04/03 10:28:53;;;;;;;2.83;2.53;;;6.40;91.90;;;;;;5050747;28;20423;-38
2022/04/03 10:31:19;;;;;;;4.40;2.30;;;6.40;91.60;;;;;;5054697;28;20528;-35
2022/04/03 10:33:49;;;;;;;5.17;2.60;;;6.40;91.70;;;;;;5057848;28;20427;-39
2022/04/03 10:36:24;;;;;;;3.33;2.00;;;6.40;92.00;;;;;;5061792;28;20700;-41
2022/04/03 10:38:58;;;;;;;2.30;2.10;;;6.70;92.40;;;;;;5056182;28;20712;-41
2022/04/03 10:41:29;;;;;;;2.00;1.83;;;6.60;91.80;;;;;;5055148;28;20431;-36
2022/04/03 10:44:22;;;;;;;1.70;1.60;;;6.40;91.20;;;;;;5059659;28;20411;-38
2022/04/03 10:47:03;;;;;;;1.67;1.47;;;6.60;91.10;;;;;;5061525;28;20451;-38
2022/04/03 10:49:43;;;;;;;2.57;1.70;;;6.50;91.40;;;;;;5060615;28;20431;-40
2022/04/03 10:52:23;;;;;;;3.37;1.80;;;6.60;91.20;;;;;;5058912;28;20495;-38
2022/04/03 10:54:51;;;;;;;2.20;2.00;;;7.20;92.40;;;;;;5058559;28;20817;-39
2022/04/03 10:57:50;;;;;;;3.20;2.20;;;7.60;90.20;;;;;;5057059;28;20448;-35
2022/04/03 11:00:16;;;;;;;2.50;1.70;;;7.90;89.10;;;;;;5055379;28;20480;-41
2022/04/03 11:02:51;;;;;;;2.17;1.97;;;8.30;89.70;;;;;;5051463;28;20409;-33
2022/04/03 11:05:22;;;;;;;2.60;2.40;;;8.60;89.90;;;;;;5054248;28;20431;-39
2022/04/03 11:07:53;;;;;;;4.27;2.50;;;8.40;85.40;;;;;;5052534;28;20792;-39
2022/04/03 11:10:52;;;;;;;2.23;2.03;;;8.50;88.80;;;;;;5056858;28;20427;-38
2022/04/03 11:13:39;;;;;;;2.53;2.30;;;8.60;89.40;;;;;;5057327;28;20870;-38
2022/04/03 11:16:09;;;;;;;2.70;2.23;;;8.90;89.90;;;;;;5057200;28;20403;-40
2022/04/03 11:18:39;;;;;;;2.83;2.50;;;8.90;90.00;;;;;;5054797;28;20412;-41
2022/04/03 11:21:10;;;;;;;1.80;1.70;;;9.00;89.90;;;;;;5057740;28;20443;-40
2022/04/03 11:23:50;;;;;;;2.20;1.67;;;9.10;90.10;;;;;;5059651;28;20915;-38
2022/04/03 11:26:17;;;;;;;2.20;1.23;;;9.50;90.50;;;;;;5056522;28;20561;-40
2022/04/03 11:28:43;;;;;;;3.13;1.93;;;9.30;92.90;;;;;;5058391;28;20605;-38
2022/04/03 11:31:10;;;;;;;5.80;2.37;;;9.60;92.20;;;;;;5051412;28;20434;-41
2022/04/03 11:33:37;;;;;;;2.80;2.37;;;9.70;91.60;;;;;;5045186;28;20417;-40
2022/04/03 11:36:08;;;;;;;1.63;1.53;;;9.90;91.70;;;;;;5057902;28;20775;-40
2022/04/03 11:39:01;;;;;;;1.90;1.70;;;10.30;90.10;;;;;;5058768;28;20407;-37
2022/04/03 11:41:31;;;;;;;3.70;1.90;;;10.20;89.90;;;;;;5045402;28;20432;-37
2022/04/03 11:44:11;;;;;;;3.00;1.93;;;10.30;90.60;;;;;;5062529;28;20419;-41
2022/04/03 11:46:42;;;;;;;2.63;1.80;;;10.40;90.20;;;;;;5051020;28;20428;-41
2022/04/03 11:49:15;;;;;;;2.87;1.70;;;10.40;87.20;;;;;;5047873;28;20424;-39
2022/04/03 11:51:42;;;;;;;3.70;1.80;;;10.60;88.80;;;;;;5068617;28;20489;-40
2022/04/03 11:54:09;;;;;;;2.90;2.20;;;10.70;86.80;;;;;;5061606;28;20420;-40
2022/04/03 11:56:36;;;;;;;2.03;1.83;;;10.40;86.30;;;;;;5057894;28;20831;-38
2022/04/03 11:59:04;;;;;;;3.10;2.10;;;10.50;86.80;;;;;;5053415;28;20405;-37
2022/04/03 12:01:38;;;;;;;2.23;2.00;;;9.90;87.00;;;;;;5059643;28;20594;-38
2022/04/03 12:04:08;;;;;;;1.90;1.70;;;9.90;86.50;;;;;;5067358;28;20436;-39
2022/04/03 12:06:34;;;;;;;2.30;2.07;;;10.00;85.50;;;;;;5069640;28;20435;-37
2022/04/03 12:08:59;;;;;;;2.60;2.40;;;10.10;88.00;;;;;;5074708;28;20428;-35
2022/04/03 12:11:25;;;;;;;3.00;1.73;;;10.10;87.10;;;;;;5069402;28;20534;-38
2022/04/03 12:14:00;;;;;;;3.90;2.57;;;10.20;89.50;;;;;;5084545;28;20451;-37
2022/04/03 12:16:35;;;;;;;3.50;2.73;;;10.20;89.90;;;;;;5062132;28;20181;-38
2022/04/03 12:19:00;;;;;;;3.63;2.80;;;10.60;87.00;;;;;;5076939;28;20412;-35
2022/04/03 12:21:36;;;;;;;2.93;2.40;;;10.50;86.00;;;;;;5052230;28;20485;-38
2022/04/03 12:24:10;;;;;;;3.27;2.60;;;10.80;85.40;;;;;;5065653;28;20177;-39
2022/04/03 12:26:37;;;;;;;2.83;2.20;;;10.60;83.80;;;;;;5063637;28;20424;-39
2022/04/03 12:29:07;;;;;;;4.90;2.43;;;10.50;81.50;;;;;;5060234;28;20481;-37
2022/04/03 12:31:34;;;;;;;3.67;2.50;;;10.60;86.00;;;;;;5081403;28;20476;-39
2022/04/03 12:34:18;;;;;;;4.30;2.83;;;10.30;82.60;;;;;;5064082;28;20438;-38
2022/04/03 12:36:49;;;;;;;4.83;3.23;;;10.10;82.10;;;;;;5067988;28;20668;-33
2022/04/03 12:39:46;;;;;;;3.33;2.90;;;10.30;84.70;;;;;;5070371;28;20419;-40
2022/04/03 12:42:18;;;;;;;3.07;2.63;;;10.10;82.80;;;;;;5047161;28;20427;-37
2022/04/03 12:45:02;;;;;;;3.20;2.90;;;10.10;85.00;;;;;;5052084;28;20779;-37
2022/04/03 12:47:35;;;;;;;4.70;3.50;;;10.20;84.40;;;;;;5047243;28;20420;-34
2022/04/03 12:50:06;;;;;;;3.53;3.23;;;10.50;85.20;;;;;;5049543;28;20431;-39
2022/04/03 12:52:38;;;;;;;2.90;2.70;;;10.20;83.50;;;;;;5080592;28;20809;-39
2022/04/03 12:55:05;;;;;;;5.50;3.70;;;10.20;81.90;;;;;;5050120;28;20431;-38
2022/04/03 13:00:16;;;;;;;4.57;3.50;;;10.20;85.00;;;;;;5078559;28;20872;-36